Aeroporto :
LOGIN :

Iscrizione | Disclaimer

   EN    FR    IT 

 










Sommario :    VFR   VFR Marginale   IFR   IFR Intensivo   IFR Molto Intensivo
Visibilità : 
Base nubi : 
>= 8 km
>= 3000ft
5 / 8 km
1000 / 3000 ft
1500m / 5 km
500 / 1000 ft
800 / 1500m
200 / 500 ft
< 800m
< 200 ft
Simboli :   Temporali  Nebbia  Neve Forte  Precipitazioni Forti  Vento > 20 kt
SIGMETs :   Varie  Temporali  Ghiacco  Turbolenza  Onda orograficha  Ceneri Vulcaniche







- Altitudine del aeroporto : 1079 ft


ETIK - Illesheim Air Base

ULTIMO METAR :
  • 252256Z AUTO 26004KT 9999 FEW037 01/01 A3028 RMK AO2 SLP270 T00070007 400860001 $

METARs OBSOLETI :
  • 252156Z AUTO 29007KT 9999 BKN060 OVC070 03/03 A3027 RMK AO2 SLP265 T00250025 $
  • 252056Z AUTO 30007KT 9999 FEW029 SCT036 BKN044 BKN050 BKN085 03/03 A3025 RMK AO2 SLP258 T00330033 52026 $

TAF TAF ETIK
Valido dal 25 a 22 ore il 27 a 04 ore UTC


252158Z 2522/2704 30009KT 9999 BKN035 QNH3016INS
BECMG 2603/2604 32009KT 9999 BKN010 QNH3023INS
BECMG 2609/2610 30012KT 9999 BKN035 QNH3027INS
BECMG 2613/2614 30010G15KT 9999 BKN040 QNH3030INS TX08/2612Z TN00/2602Z
Nessun NOTAM noto per questo aeroporto.



MetMap, La meteo Aeronautica in un colpo d'occhio ! - Copyright ORBIFLY Dicembre 2007 - Disclaimer

ORBIFLY MET'MAP TEAM :

Programmazione e sviluppo : Alexandra Zaïnal
Concezione e sviluppo : Baudouin d'Aumeries
Co-Programmazione e sviluppo : Marc-Olivier Méhu
Supporto tecnico e logistico : Manuel Goepfert
Aiuto per la traduzione : Arnaldo La Scala

Contatto : metmap@orbifly.com




FONTI E CREDITI :

   NOAA